Time;durP1;ratioP1;P1;durP2;ratioP2;P2;SDS_P1;SDS_P2;PMS_P1;PMS_P2;Temp;Humidity;BMP_temperature;BMP_pressure;BME280_temperature;BME280_humidity;BME280_pressure;Samples;Min_cycle;Max_cycle;Signal;HPM_P1;HPM_P2
2023/05/16 00:01:48;;;;;;;;;;;;;;;10.94;100.00;99638.22;5134771;27;804;-63
2023/05/16 00:04:16;;;;;;;;;;;;;;;10.99;100.00;99628.72;5134777;27;882;-63
2023/05/16 00:06:43;;;;;;;;;;;;;;;11.04;100.00;99622.75;5134754;27;843;-63
2023/05/16 00:09:10;;;;;;;;;;;;;;;11.07;100.00;99621.91;5134674;27;890;-63
2023/05/16 00:11:37;;;;;;;;;;;;;;;11.14;100.00;99621.84;5134537;27;867;-64
2023/05/16 00:14:04;;;;;;;;;;;;;;;11.19;100.00;99632.47;5134601;27;811;-65
2023/05/16 00:16:31;;;;;;;;;;;;;;;11.21;100.00;99641.13;5134514;27;826;-65
2023/05/16 00:18:58;;;;;;;;;;;;;;;11.21;100.00;99638.38;5134452;27;1040;-64
2023/05/16 00:21:25;;;;;;;;;;;;;;;11.16;100.00;99638.03;5134067;27;1961;-64
2023/05/16 00:23:52;;;;;;;;;;;;;;;11.09;100.00;99636.13;5133207;27;855;-63
2023/05/16 00:26:19;;;;;;;;;;;;;;;11.09;100.00;99640.88;5134251;27;882;-63
2023/05/16 00:28:46;;;;;;;;;;;;;;;11.07;100.00;99635.72;5134381;27;890;-63
2023/05/16 00:31:13;;;;;;;;;;;;;;;11.01;100.00;99640.16;5134237;27;917;-64
2023/05/16 00:33:40;;;;;;;;;;;;;;;10.98;100.00;99655.56;5134355;27;815;-65
2023/05/16 00:36:07;;;;;;;;;;;;;;;10.99;100.00;99659.94;5134162;27;898;-65
2023/05/16 00:38:34;;;;;;;;;;;;;;;10.99;100.00;99653.63;5134004;27;846;-65
2023/05/16 00:41:01;;;;;;;;;;;;;;;11.00;100.00;99649.66;5132672;27;1961;-65
2023/05/16 00:43:28;;;;;;;;;;;;;;;10.99;100.00;99648.09;5133937;27;815;-64
2023/05/16 00:45:56;;;;;;;;;;;;;;;11.00;100.00;99647.66;5133888;27;846;-63
2023/05/16 00:48:22;;;;;;;;;;;;;;;10.95;100.00;99647.34;5133859;27;1039;-63
2023/05/16 00:50:49;;;;;;;;;;;;;;;10.79;100.00;99647.84;5133872;27;1026;-64
2023/05/16 00:53:16;;;;;;;;;;;;;;;10.59;100.00;99642.09;5133759;27;893;-64
2023/05/16 00:55:44;;;;;;;;;;;;;;;10.48;100.00;99633.09;5133685;27;878;-64
2023/05/16 00:58:11;;;;;;;;;;;;;;;10.43;100.00;99634.28;5133683;27;819;-65
2023/05/16 01:00:39;;;;;;;;;;;;;;;10.44;100.00;99627.59;5133538;27;1885;-63
2023/05/16 01:03:06;;;;;;;;;;;;;;;10.46;100.00;99635.47;5133623;27;870;-65
2023/05/16 01:05:33;;;;;;;;;;;;;;;10.45;100.00;99634.69;5133520;27;803;-64
2023/05/16 01:08:01;;;;;;;;;;;;;;;10.39;100.00;99634.34;5133651;27;826;-64
2023/05/16 01:10:31;;;;;;;;;;;;;;;10.38;100.00;99632.75;5133447;27;897;-64
2023/05/16 01:13:10;;;;;;;;;;;;;;;10.40;100.00;99613.00;5132137;27;815;-64
2023/05/16 01:15:46;;;;;;;;;;;;;;;10.42;100.00;99605.09;5133598;27;858;-63
2023/05/16 01:18:29;;;;;;;;;;;;;;;10.42;100.00;99599.59;5133311;27;1178;-65
2023/05/16 01:21:07;;;;;;;;;;;;;;;10.43;100.00;99590.09;5133066;27;1921;-65
2023/05/16 01:23:47;;;;;;;;;;;;;;;10.42;100.00;99586.53;5133301;27;819;-64
2023/05/16 01:26:14;;;;;;;;;;;;;;;10.42;100.00;99589.31;5133046;27;812;-64
2023/05/16 01:28:43;;;;;;;;;;;;;;;10.49;100.00;99582.16;5133146;27;823;-65
2023/05/16 01:31:10;;;;;;;;;;;;;;;10.54;100.00;99573.41;5131787;27;835;-65
2023/05/16 01:33:37;;;;;;;;;;;;;;;10.55;100.00;99573.03;5133055;27;882;-65
2023/05/16 01:36:03;;;;;;;;;;;;;;;10.60;100.00;99569.03;5133010;27;881;-64
2023/05/16 01:38:51;;;;;;;;;;;;;;;10.62;100.00;99563.88;5132902;27;854;-65
2023/05/16 01:41:34;;;;;;;;;;;;;;;10.65;100.00;99570.56;5132193;27;1959;-64
2023/05/16 01:44:04;;;;;;;;;;;;;;;10.74;100.00;99568.13;5132934;27;901;-65
2023/05/16 01:46:36;;;;;;;;;;;;;;;10.81;100.00;99571.59;5132955;27;886;-64
2023/05/16 01:49:06;;;;;;;;;;;;;;;10.90;100.00;99571.09;5132834;27;854;-65
2023/05/16 01:51:36;;;;;;;;;;;;;;;10.93;100.00;99572.28;5132934;27;869;-65
2023/05/16 01:54:04;;;;;;;;;;;;;;;10.97;100.00;99573.03;5132604;27;878;-65
2023/05/16 01:56:32;;;;;;;;;;;;;;;11.04;100.00;99573.75;5132778;27;810;-65
2023/05/16 01:59:00;;;;;;;;;;;;;;;11.08;100.00;99573.72;5132606;27;839;-64
2023/05/16 02:01:28;;;;;;;;;;;;;;;11.13;100.00;99578.00;5132737;27;1940;-65
2023/05/16 02:03:57;;;;;;;;;;;;;;;11.15;100.00;99581.16;5132593;27;827;-64
2023/05/16 02:06:24;;;;;;;;;;;;;;;11.15;100.00;99581.16;5132883;27;882;-64
2023/05/16 02:08:51;;;;;;;;;;;;;;;11.13;100.00;99583.53;5131205;27;1166;-64
2023/05/16 02:11:19;;;;;;;;;;;;;;;11.14;100.00;99577.59;5132603;27;811;-64
2023/05/16 02:13:46;;;;;;;;;;;;;;;11.14;100.00;99569.31;5132433;27;862;-65
2023/05/16 02:16:13;;;;;;;;;;;;;;;11.15;100.00;99572.84;5132553;27;851;-65
2023/05/16 02:18:41;;;;;;;;;;;;;;;11.19;100.00;99579.91;5131095;28;1209;-64
2023/05/16 02:21:08;;;;;;;;;;;;;;;11.21;100.00;99568.44;5132070;27;1961;-65
2023/05/16 02:23:35;;;;;;;;;;;;;;;11.23;100.00;99575.13;5132258;28;1046;-65
2023/05/16 02:26:03;;;;;;;;;;;;;;;11.26;100.00;99583.78;5132282;27;926;-65
2023/05/16 02:28:30;;;;;;;;;;;;;;;11.26;100.00;99592.88;5132361;27;842;-65
2023/05/16 02:30:58;;;;;;;;;;;;;;;11.24;100.00;99579.47;5132251;27;882;-64
2023/05/16 02:33:26;;;;;;;;;;;;;;;11.20;100.00;99566.84;5132594;27;795;-64
2023/05/16 02:35:53;;;;;;;;;;;;;;;11.19;100.00;99568.06;5132241;27;901;-63
2023/05/16 02:38:20;;;;;;;;;;;;;;;11.21;100.00;99563.69;5132317;27;799;-64
2023/05/16 02:40:47;;;;;;;;;;;;;;;11.20;100.00;99564.09;5132136;27;1910;-66
2023/05/16 02:43:15;;;;;;;;;;;;;;;11.18;100.00;99561.75;5132401;27;854;-63
2023/05/16 02:45:42;;;;;;;;;;;;;;;11.19;100.00;99563.31;5132195;27;894;-65
2023/05/16 02:48:09;;;;;;;;;;;;;;;11.24;100.00;99568.41;5130775;28;773;-63
2023/05/16 02:50:39;;;;;;;;;;;;;;;11.30;100.00;99562.41;5132134;27;867;-63
2023/05/16 02:53:06;;;;;;;;;;;;;;;11.31;100.00;99562.00;5134148;27;834;-63
2023/05/16 02:55:33;;;;;;;;;;;;;;;11.31;100.00;99570.31;5136164;27;823;-63
2023/05/16 02:57:59;;;;;;;;;;;;;;;11.32;100.00;99569.09;5134698;27;984;-64
2023/05/16 03:00:26;;;;;;;;;;;;;;;11.32;100.00;99569.09;5134695;27;1972;-65
2023/05/16 03:02:53;;;;;;;;;;;;;;;11.32;100.00;99566.31;5135891;27;841;-64
2023/05/16 03:05:20;;;;;;;;;;;;;;;11.35;100.00;99573.00;5136046;27;886;-64
2023/05/16 03:07:47;;;;;;;;;;;;;;;11.39;100.00;99574.56;5135904;27;882;-63
2023/05/16 03:10:15;;;;;;;;;;;;;;;11.45;100.00;99567.34;5135814;27;811;-65
2023/05/16 03:12:41;;;;;;;;;;;;;;;11.56;100.00;99578.28;5135776;27;831;-64
2023/05/16 03:15:09;;;;;;;;;;;;;;;11.64;100.00;99577.00;5135729;27;827;-63
2023/05/16 03:17:35;;;;;;;;;;;;;;;11.70;100.00;99582.88;5135616;27;942;-64
2023/05/16 03:20:03;;;;;;;;;;;;;;;11.74;100.00;99583.59;5135441;27;1877;-64
2023/05/16 03:22:30;;;;;;;;;;;;;;;11.78;100.00;99573.25;5135575;27;815;-65
2023/05/16 03:24:57;;;;;;;;;;;;;;;11.82;100.00;99582.31;5135497;27;823;-63
2023/05/16 03:27:25;;;;;;;;;;;;;;;11.92;100.00;99583.38;5135525;27;807;-63
2023/05/16 03:29:51;;;;;;;;;;;;;;;11.99;100.00;99571.41;5135885;27;885;-64
2023/05/16 03:32:18;;;;;;;;;;;;;;;12.04;100.00;99580.03;5135477;27;913;-64
2023/05/16 03:34:45;;;;;;;;;;;;;;;12.14;100.00;99574.75;5134015;27;1150;-64
2023/05/16 03:37:14;;;;;;;;;;;;;;;12.21;100.00;99569.91;5135346;27;811;-64
2023/05/16 03:39:41;;;;;;;;;;;;;;;12.33;100.00;99570.50;5135679;27;1910;-64
2023/05/16 03:42:08;;;;;;;;;;;;;;;12.39;100.00;99569.63;5135523;27;901;-64
2023/05/16 03:44:36;;;;;;;;;;;;;;;12.46;100.00;99563.97;5135470;27;867;-65
2023/05/16 03:47:03;;;;;;;;;;;;;;;12.57;100.00;99577.66;5135381;27;803;-65
2023/05/16 03:49:30;;;;;;;;;;;;;;;12.72;100.00;99582.97;5135327;27;811;-65
2023/05/16 03:51:57;;;;;;;;;;;;;;;12.80;100.00;99585.19;5135069;27;945;-63
2023/05/16 03:54:24;;;;;;;;;;;;;;;12.93;100.00;99581.78;5135186;27;878;-63
2023/05/16 03:56:51;;;;;;;;;;;;;;;13.05;100.00;99581.16;5135102;27;819;-64
2023/05/16 03:59:18;;;;;;;;;;;;;;;13.17;100.00;99588.09;5135100;27;803;-64
2023/05/16 04:01:45;;;;;;;;;;;;;;;13.30;100.00;99583.50;5135164;27;1878;-65
2023/05/16 04:04:13;;;;;;;;;;;;;;;13.45;100.00;99592.34;5134667;27;854;-65
2023/05/16 04:06:40;;;;;;;;;;;;;;;13.59;100.00;99592.06;5134818;27;858;-64
2023/05/16 04:09:07;;;;;;;;;;;;;;;13.70;100.00;99586.28;5134718;27;858;-65
2023/05/16 04:11:35;;;;;;;;;;;;;;;13.82;100.00;99587.59;5134729;27;882;-64
2023/05/16 04:14:02;;;;;;;;;;;;;;;13.96;100.00;99583.75;5134567;27;822;-64
2023/05/16 04:16:29;;;;;;;;;;;;;;;14.08;100.00;99583.03;5134569;27;827;-63
2023/05/16 04:18:56;;;;;;;;;;;;;;;14.22;100.00;99585.50;5134364;27;936;-63
2023/05/16 04:21:23;;;;;;;;;;;;;;;14.42;100.00;99585.44;5134110;27;1952;-63
2023/05/16 04:23:50;;;;;;;;;;;;;;;14.65;100.00;99578.94;5134482;27;827;-63
2023/05/16 04:26:17;;;;;;;;;;;;;;;14.88;100.00;99577.19;5134354;27;870;-64
2023/05/16 04:28:44;;;;;;;;;;;;;;;15.09;100.00;99565.47;5134373;27;807;-64
2023/05/16 04:31:13;;;;;;;;;;;;;;;15.26;100.00;99565.44;5134335;27;823;-63
2023/05/16 04:33:40;;;;;;;;;;;;;;;15.39;100.00;99559.91;5134168;27;827;-64
2023/05/16 04:36:07;;;;;;;;;;;;;;;15.50;100.00;99555.56;5134225;27;840;-64
2023/05/16 04:38:34;;;;;;;;;;;;;;;15.66;100.00;99557.53;5134085;27;854;-64
2023/05/16 04:41:02;;;;;;;;;;;;;;;15.83;100.00;99551.88;5133976;27;1906;-63
2023/05/16 04:43:29;;;;;;;;;;;;;;;15.96;100.00;99546.28;5133996;27;862;-64
2023/05/16 04:45:57;;;;;;;;;;;;;;;16.10;100.00;99545.84;5133946;27;885;-64
2023/05/16 04:48:24;;;;;;;;;;;;;;;16.25;100.00;99546.97;5134001;27;827;-63
2023/05/16 04:50:51;;;;;;;;;;;;;;;16.49;100.00;99539.03;5133785;27;854;-64
2023/05/16 04:53:18;;;;;;;;;;;;;;;16.71;100.00;99529.94;5133866;27;858;-63
2023/05/16 04:55:46;;;;;;;;;;;;;;;16.88;100.00;99527.78;5133757;27;898;-63
2023/05/16 04:58:13;;;;;;;;;;;;;;;17.01;100.00;99536.88;5133832;27;846;-63
2023/05/16 05:00:40;;;;;;;;;;;;;;;17.04;100.00;99535.94;5133592;27;1941;-63
2023/05/16 05:03:07;;;;;;;;;;;;;;;17.09;100.00;99538.19;5133674;27;814;-63
2023/05/16 05:05:34;;;;;;;;;;;;;;;17.21;100.00;99538.56;5133621;27;886;-63
2023/05/16 05:08:01;;;;;;;;;;;;;;;17.27;100.00;99542.34;5133491;27;827;-63
2023/05/16 05:10:29;;;;;;;;;;;;;;;17.40;100.00;99537.47;5133462;27;870;-63
2023/05/16 05:12:56;;;;;;;;;;;;;;;17.47;100.00;99551.16;5133394;27;899;-63
2023/05/16 05:15:24;;;;;;;;;;;;;;;17.52;100.00;99544.22;5132742;27;890;-64
2023/05/16 05:17:50;;;;;;;;;;;;;;;17.51;99.85;99543.41;5133320;27;874;-63
2023/05/16 05:20:17;;;;;;;;;;;;;;;17.52;98.98;99545.00;5131593;27;1944;-64
2023/05/16 05:22:45;;;;;;;;;;;;;;;17.62;98.29;99539.44;5133448;27;866;-65
2023/05/16 05:25:11;;;;;;;;;;;;;;;17.55;98.17;99552.44;5133472;27;811;-63
2023/05/16 05:27:39;;;;;;;;;;;;;;;17.63;98.36;99552.97;5133150;27;818;-64
2023/05/16 05:30:06;;;;;;;;;;;;;;;17.72;98.04;99549.44;5133050;27;869;-63
2023/05/16 05:32:33;;;;;;;;;;;;;;;17.70;98.03;99544.31;5131840;27;1389;-61
2023/05/16 05:34:59;;;;;;;;;;;;;;;17.80;97.90;99535.97;5133043;27;827;-63
2023/05/16 05:37:26;;;;;;;;;;;;;;;18.00;96.51;99535.63;5132973;27;867;-63
2023/05/16 05:39:54;;;;;;;;;;;;;;;18.26;95.51;99536.94;5132895;27;1886;-63
2023/05/16 05:42:21;;;;;;;;;;;;;;;18.58;93.67;99532.03;5132957;27;815;-63
2023/05/16 05:44:47;;;;;;;;;;;;;;;18.97;91.45;99543.63;5132840;27;851;-64
2023/05/16 05:47:15;;;;;;;;;;;;;;;19.04;89.94;99551.72;5132815;27;1061;-64
2023/05/16 05:49:42;;;;;;;;;;;;;;;18.93;89.69;99545.81;5132858;27;867;-64
2023/05/16 05:52:09;;;;;;;;;;;;;;;18.97;90.35;99550.00;5132780;27;840;-64
2023/05/16 05:54:36;;;;;;;;;;;;;;;19.04;90.53;99542.53;5132712;27;870;-63
2023/05/16 05:57:03;;;;;;;;;;;;;;;19.03;91.20;99547.34;5132709;27;815;-63
2023/05/16 05:59:30;;;;;;;;;;;;;;;19.00;91.74;99550.31;5132662;27;846;-63
2023/05/16 06:01:56;;;;;;;;;;;;;;;19.19;91.20;99557.47;5132592;27;1890;-62
2023/05/16 06:04:23;;;;;;;;;;;;;;;19.54;89.16;99557.91;5132595;27;871;-63
2023/05/16 06:06:50;;;;;;;;;;;;;;;19.92;87.45;99559.34;5132874;27;854;-63
2023/05/16 06:09:17;;;;;;;;;;;;;;;20.28;84.71;99560.47;5132496;27;838;-63
2023/05/16 06:11:44;;;;;;;;;;;;;;;21.25;81.77;99554.81;5132529;27;803;-63
2023/05/16 06:14:13;;;;;;;;;;;;;;;22.39;75.86;99550.63;5132593;27;835;-65
2023/05/16 06:16:40;;;;;;;;;;;;;;;22.84;72.77;99560.41;5132402;27;854;-64
2023/05/16 06:19:08;;;;;;;;;;;;;;;23.24;70.11;99561.69;5132367;27;1082;-63
2023/05/16 06:21:35;;;;;;;;;;;;;;;24.03;63.94;99562.44;5130790;28;1890;-63
2023/05/16 06:24:02;;;;;;;;;;;;;;;24.32;61.19;99568.28;5132351;27;842;-63
2023/05/16 06:26:28;;;;;;;;;;;;;;;24.14;60.58;99573.03;5133795;27;890;-63
2023/05/16 06:28:56;;;;;;;;;;;;;;;24.18;60.66;99578.47;5136538;27;886;-64
2023/05/16 06:31:23;;;;;;;;;;;;;;;24.36;59.17;99577.28;5135306;27;1293;-64
2023/05/16 06:33:51;;;;;;;;;;;;;;;24.07;59.23;99593.25;5136818;27;846;-64
2023/05/16 06:36:18;;;;;;;;;;;;;;;23.37;61.29;99585.91;5136518;27;886;-63
2023/05/16 06:38:45;;;;;;;;;;;;;;;22.88;62.42;99582.75;5136410;27;799;-64
2023/05/16 06:41:12;;;;;;;;;;;;;;;22.73;62.68;99588.47;5135017;27;1973;-64
2023/05/16 06:43:40;;;;;;;;;;;;;;;23.22;62.29;99583.19;5136615;27;918;-63
2023/05/16 06:46:07;;;;;;;;;;;;;;;23.87;60.47;99576.41;5136294;27;847;-64
2023/05/16 06:48:34;;;;;;;;;;;;;;;24.37;59.05;99573.97;5136312;27;819;-64
2023/05/16 06:51:00;;;;;;;;;;;;;;;25.18;57.84;99559.72;5136197;27;873;-64
2023/05/16 06:53:28;;;;;;;;;;;;;;;25.57;56.59;99561.88;5136221;27;967;-65
2023/05/16 06:55:55;;;;;;;;;;;;;;;26.40;54.50;99554.63;5136275;27;795;-64
2023/05/16 06:58:22;;;;;;;;;;;;;;;27.54;51.87;99554.94;5136103;27;975;-64
2023/05/16 07:00:49;;;;;;;;;;;;;;;28.19;49.77;99562.69;5135928;27;1881;-64
2023/05/16 07:03:16;;;;;;;;;;;;;;;28.91;47.76;99562.41;5135962;27;866;-62
2023/05/16 07:05:42;;;;;;;;;;;;;;;29.14;45.69;99557.22;5135928;27;847;-60
2023/05/16 07:08:11;;;;;;;;;;;;;;;28.54;46.62;99560.28;5135870;27;851;-62
2023/05/16 07:10:38;;;;;;;;;;;;;;;28.00;46.68;99559.00;5135890;27;835;-64
2023/05/16 07:13:05;;;;;;;;;;;;;;;27.08;48.16;99560.09;5135818;27;835;-65
2023/05/16 07:15:32;;;;;;;;;;;;;;;26.82;49.68;99549.09;5135728;27;937;-65
2023/05/16 07:18:00;;;;;;;;;;;;;;;27.19;49.55;99547.91;5135785;27;807;-65
2023/05/16 07:20:26;;;;;;;;;;;;;;;27.78;48.25;99554.22;5135053;27;1948;-64
2023/05/16 07:22:56;;;;;;;;;;;;;;;27.80;48.01;99549.59;5135618;27;853;-64
2023/05/16 07:25:23;;;;;;;;;;;;;;;28.07;47.58;99541.34;5134238;27;1311;-65
2023/05/16 07:27:50;;;;;;;;;;;;;;;28.40;46.06;99540.25;5135569;27;862;-66
2023/05/16 07:30:17;;;;;;;;;;;;;;;28.14;46.05;99542.84;5135404;27;905;-65
2023/05/16 07:32:45;;;;;;;;;;;;;;;27.66;47.09;99536.53;5135403;27;835;-66
2023/05/16 07:35:12;;;;;;;;;;;;;;;26.78;48.34;99529.56;5135296;27;878;-64
2023/05/16 07:37:41;;;;;;;;;;;;;;;26.15;50.12;99533.81;5134822;27;894;-64
2023/05/16 07:40:09;;;;;;;;;;;;;;;25.80;50.66;99543.63;5135274;27;1972;-64
2023/05/16 07:42:36;;;;;;;;;;;;;;;25.79;49.79;99547.72;5135489;27;965;-64
2023/05/16 07:45:03;;;;;;;;;;;;;;;25.87;49.26;99559.31;5135499;27;811;-65
2023/05/16 07:47:30;;;;;;;;;;;;;;;25.87;49.54;99565.72;5135469;27;827;-65
2023/05/16 07:49:57;;;;;;;;;;;;;;;26.14;49.24;99569.13;5135461;27;847;-64
2023/05/16 07:52:24;;;;;;;;;;;;;;;26.35;48.42;99571.63;5133901;27;1339;-65
2023/05/16 07:54:51;;;;;;;;;;;;;;;26.75;47.63;99578.78;5135263;27;807;-65
2023/05/16 07:57:18;;;;;;;;;;;;;;;27.78;45.94;99582.63;5135170;27;874;-65
2023/05/16 07:59:46;;;;;;;;;;;;;;;28.33;42.35;99586.28;5134953;27;1944;-64
2023/05/16 08:02:13;;;;;;;;;;;;;;;27.38;44.12;99582.91;5134849;27;866;-65
2023/05/16 08:04:40;;;;;;;;;;;;;;;27.56;43.37;99586.41;5133565;27;815;-64
2023/05/16 08:07:07;;;;;;;;;;;;;;;26.83;43.85;99559.94;5134843;27;941;-64
2023/05/16 08:09:34;;;;;;;;;;;;;;;26.74;43.27;99594.25;5134818;27;823;-64
2023/05/16 08:12:04;;;;;;;;;;;;;;;27.11;42.20;99580.97;5134793;27;855;-64
2023/05/16 08:14:35;;;;;;;;;;;;;;;28.17;41.31;99573.03;5134613;27;819;-65
2023/05/16 08:17:02;;;;;;;;;;;;;;;29.01;39.57;99577.03;5134737;27;856;-65
2023/05/16 08:19:29;;;;;;;;;;;;;;;29.43;36.88;99566.91;5134531;27;930;-63
2023/05/16 08:21:56;;;;;;;;;;;;;;;29.37;36.32;99559.78;5134176;27;1889;-65
2023/05/16 08:24:24;;;;;;;;;;;;;;;29.70;35.33;99567.03;5134449;27;823;-65
2023/05/16 08:26:51;;;;;;;;;;;;;;;29.64;33.20;99560.66;5134401;27;839;-65
2023/05/16 08:29:18;;;;;;;;;;;;;;;29.49;32.96;99556.22;5134285;27;962;-64
2023/05/16 08:31:45;;;;;;;;;;;;;;;29.39;33.37;99555.06;5134277;27;820;-63
2023/05/16 08:34:10;;;;;;;;;;;;;;;29.36;33.36;99556.16;5134269;27;845;-64
2023/05/16 08:36:37;;;;;;;;;;;;;;;29.39;33.01;99549.38;5134181;27;815;-65
2023/05/16 08:39:04;;;;;;;;;;;;;;;29.08;32.12;99540.22;5132911;27;855;-64
2023/05/16 08:41:32;;;;;;;;;;;;;;;28.83;33.50;99547.28;5134124;27;1967;-65
2023/05/16 08:43:59;;;;;;;;;;;;;;;28.71;33.15;99544.56;5134299;27;842;-65
2023/05/16 08:46:27;;;;;;;;;;;;;;;28.58;32.57;99549.38;5132721;27;843;-64
2023/05/16 08:48:58;;;;;;;;;;;;;;;28.47;33.55;99545.34;5133757;27;807;-64
2023/05/16 08:51:27;;;;;;;;;;;;;;;28.40;33.10;99548.00;5131772;27;1416;-65
2023/05/16 08:54:05;;;;;;;;;;;;;;;28.45;32.54;99541.50;5132512;27;1169;-65
2023/05/16 08:56:33;;;;;;;;;;;;;;;28.42;33.27;99543.34;5133846;27;823;-65
2023/05/16 08:59:01;;;;;;;;;;;;;;;28.47;32.25;99533.19;5133988;27;843;-65
2023/05/16 09:01:29;;;;;;;;;;;;;;;28.61;33.22;99529.16;5133625;27;1953;-66
2023/05/16 09:03:57;;;;;;;;;;;;;;;28.76;33.14;99525.88;5133555;27;795;-65
2023/05/16 09:06:25;;;;;;;;;;;;;;;28.80;34.37;99525.59;5133699;27;803;-65
2023/05/16 09:08:52;;;;;;;;;;;;;;;28.77;33.90;99526.69;5133546;27;842;-65
2023/05/16 09:11:20;;;;;;;;;;;;;;;28.54;34.08;99529.00;5133660;27;811;-65
2023/05/16 09:13:48;;;;;;;;;;;;;;;28.56;33.37;99520.72;5133656;27;854;-66
2023/05/16 09:16:16;;;;;;;;;;;;;;;28.42;32.38;99528.34;5133321;27;1116;-67
2023/05/16 09:18:45;;;;;;;;;;;;;;;28.34;33.54;99528.19;5133304;27;811;-64
2023/05/16 09:21:12;;;;;;;;;;;;;;;28.27;33.80;99526.69;5133173;27;1890;-64
2023/05/16 09:23:41;;;;;;;;;;;;;;;28.84;34.14;99517.53;5133215;27;862;-65
2023/05/16 09:26:08;;;;;;;;;;;;;;;29.35;31.94;99509.06;5133234;27;874;-64
2023/05/16 09:28:38;;;;;;;;;;;;;;;28.58;31.31;99506.75;5133201;27;874;-64
2023/05/16 09:31:26;;;;;;;;;;;;;;;28.00;33.26;99500.09;5133283;27;847;-65
2023/05/16 09:33:56;;;;;;;;;;;;;;;28.33;33.17;99488.91;5133212;27;1178;-64
2023/05/16 09:36:24;;;;;;;;;;;;;;;27.80;31.85;99486.31;5133044;27;930;-65
2023/05/16 09:38:52;;;;;;;;;;;;;;;27.07;32.95;99488.41;5132988;27;889;-65
2023/05/16 10:13:04;;;;;;;;;;;;;;;27.46;31.58;99473.22;4991423;28;1584;-55
2023/05/16 10:15:29;;;;;;;;;;;;;;;26.86;31.67;99465.34;4992186;28;820;-54
2023/05/16 10:18:00;;;;;;;;;;;;;;;26.50;32.75;99458.78;4992142;28;863;-53
2023/05/16 10:20:27;;;;;;;;;;;;;;;26.58;32.81;99459.78;4992034;28;1918;-54
2023/05/16 10:22:57;;;;;;;;;;;;;;;26.81;31.89;99465.38;4992255;28;1181;-54
2023/05/16 10:25:33;;;;;;;;;;;;;;;27.27;31.59;99461.75;4992481;28;852;-55
2023/05/16 10:28:01;;;;;;;;;;;;;;;27.65;31.48;99458.31;4992332;28;864;-54
2023/05/16 10:30:28;;;;;;;;;;;;;;;28.05;29.73;99450.22;4992074;28;836;-53
2023/05/16 10:32:55;;;;;;;;;;;;;;;28.43;29.32;99436.09;4991896;28;959;-54
2023/05/16 10:35:23;;;;;;;;;;;;;;;28.52;28.46;99438.59;4992017;28;864;-55
2023/05/16 10:37:50;;;;;;;;;;;;;;;28.73;27.97;99438.81;4991966;28;874;-53
2023/05/16 10:40:17;;;;;;;;;;;;;;;28.59;28.07;99432.31;4990519;28;1980;-54
2023/05/16 10:43:05;;;;;;;;;;;;;;;28.90;26.64;99430.06;4991933;28;816;-51
2023/05/16 10:45:31;;;;;;;;;;;;;;;29.63;26.97;99428.13;4992049;28;1172;-53
2023/05/16 10:47:58;;;;;;;;;;;;;;;30.09;26.26;99431.72;4991844;28;872;-55
2023/05/16 10:50:34;;;;;;;;;;;;;;;29.81;25.98;99424.47;4991867;28;840;-54
2023/05/16 10:53:19;;;;;;;;;;;;;;;29.66;26.41;99424.97;4991913;28;879;-55
2023/05/16 10:56:02;;;;;;;;;;;;;;;29.93;26.21;99407.91;4991685;28;941;-53
2023/05/16 10:58:39;;;;;;;;;;;;;;;30.17;25.94;99401.25;4991759;28;964;-53
2023/05/16 11:01:21;;;;;;;;;;;;;;;30.57;25.97;99420.38;4991762;28;1886;-54
2023/05/16 11:04:03;;;;;;;;;;;;;;;30.67;25.50;99404.34;4992043;28;820;-53
2023/05/16 11:06:34;;;;;;;;;;;;;;;30.72;25.87;99383.47;4990453;28;1288;-51
2023/05/16 11:09:10;;;;;;;;;;;;;;;31.09;26.13;99376.66;4991500;28;1086;-53
2023/05/16 11:11:46;;;;;;;;;;;;;;;31.29;25.46;99368.66;5012464;28;1309;-55
2023/05/16 11:14:18;;;;;;;;;;;;;;;31.14;27.76;99369.28;5033163;28;887;-53
2023/05/16 11:16:48;;;;;;;;;;;;;;;31.21;27.72;99362.09;5034881;28;937;-54
2023/05/16 11:19:28;;;;;;;;;;;;;;;31.35;26.49;99363.56;5034470;28;959;-54
2023/05/16 11:22:15;;;;;;;;;;;;;;;31.64;26.49;99369.31;5034441;28;2414;-54
2023/05/16 11:25:05;;;;;;;;;;;;;;;32.01;26.61;99373.00;5034500;28;977;-54
2023/05/16 11:27:34;;;;;;;;;;;;;;;31.61;27.17;99371.19;5034719;28;816;-53
2023/05/16 11:30:07;;;;;;;;;;;;;;;31.57;26.64;99364.31;5034450;28;871;-54
2023/05/16 11:32:37;;;;;;;;;;;;;;;31.92;26.27;99363.59;5034503;28;847;-54
2023/05/16 11:35:04;;;;;;;;;;;;;;;32.13;25.52;99357.84;5034232;28;1040;-54
2023/05/16 11:37:31;;;;;;;;;;;;;;;32.33;25.65;99361.16;5034260;28;879;-50
2023/05/16 11:40:03;;;;;;;;;;;;;;;32.87;25.57;99375.63;5033963;28;1953;-56
2023/05/16 11:42:32;;;;;;;;;;;;;;;32.98;24.14;99365.91;5034136;28;907;-54
2023/05/16 11:45:09;;;;;;;;;;;;;;;32.54;24.90;99370.41;5034061;28;971;-55
2023/05/16 11:47:40;;;;;;;;;;;;;;;31.41;25.30;99369.91;5034080;28;899;-51
2023/05/16 11:50:27;;;;;;;;;;;;;;;31.11;25.94;99364.66;5033922;28;899;-53
2023/05/16 11:52:56;;;;;;;;;;;;;;;30.60;26.10;99359.38;5032847;28;1220;-54
2023/05/16 11:55:25;;;;;;;;;;;;;;;30.88;25.25;99355.91;5034154;28;820;-54
2023/05/16 11:57:53;;;;;;;;;;;;;;;31.07;25.90;99353.63;5033744;28;998;-54
2023/05/16 12:00:21;;;;;;;;;;;;;;;30.43;26.27;99356.94;5033821;28;1944;-53
2023/05/16 12:02:48;;;;;;;;;;;;;;;29.51;27.44;99345.78;5033919;28;858;-51
2023/05/16 12:05:15;;;;;;;;;;;;;;;29.59;27.61;99345.13;5033897;28;834;-52
2023/05/16 12:07:43;;;;;;;;;;;;;;;30.86;26.89;99349.97;5033728;28;842;-51
2023/05/16 12:10:13;;;;;;;;;;;;;;;32.03;25.44;99350.31;5033767;28;974;-54
2023/05/16 12:12:41;;;;;;;;;;;;;;;32.83;24.12;99355.97;5033457;28;1245;-51
2023/05/16 12:15:08;;;;;;;;;;;;;;;32.84;23.84;99356.72;5033608;28;839;-49
2023/05/16 12:17:39;;;;;;;;;;;;;;;32.79;24.29;99343.38;5033519;28;866;-51
2023/05/16 12:20:13;;;;;;;;;;;;;;;32.45;24.46;99352.97;5033394;28;1973;-52
2023/05/16 12:22:43;;;;;;;;;;;;;;;32.04;25.23;99355.47;5033729;28;839;-54
2023/05/16 12:25:24;;;;;;;;;;;;;;;31.78;25.60;99359.31;5033123;28;840;-55
2023/05/16 12:27:52;;;;;;;;;;;;;;;31.34;25.84;99351.38;5032014;28;1322;-55
2023/05/16 12:30:21;;;;;;;;;;;;;;;30.89;25.68;99351.72;5033648;28;843;-53
2023/05/16 12:33:08;;;;;;;;;;;;;;;31.00;26.22;99344.97;5032177;28;1216;-54
2023/05/16 12:35:37;;;;;;;;;;;;;;;31.01;26.22;99346.53;5033208;28;1333;-54
2023/05/16 12:38:07;;;;;;;;;;;;;;;30.80;26.17;99352.94;5032997;28;847;-55
2023/05/16 12:40:38;;;;;;;;;;;;;;;30.57;26.61;99340.53;5033257;28;1890;-53
2023/05/16 12:43:15;;;;;;;;;;;;;;;30.69;26.79;99353.97;5033097;28;824;-53
2023/05/16 12:45:48;;;;;;;;;;;;;;;30.95;26.75;99338.09;5033002;28;836;-53
2023/05/16 12:48:14;;;;;;;;;;;;;;;31.77;25.83;99352.06;5031599;28;1423;-54
2023/05/16 12:50:41;;;;;;;;;;;;;;;31.43;25.44;99355.06;5031566;28;1172;-55
2023/05/16 12:53:15;;;;;;;;;;;;;;;31.56;25.82;99351.34;5032823;28;824;-53
2023/05/16 12:55:43;;;;;;;;;;;;;;;31.76;24.95;99341.97;5032787;28;796;-54
2023/05/16 12:58:10;;;;;;;;;;;;;;;31.38;25.89;99345.31;5032712;28;843;-53
2023/05/16 13:00:37;;;;;;;;;;;;;;;31.21;26.36;99342.13;5032657;28;1894;-55
2023/05/16 13:03:07;;;;;;;;;;;;;;;30.45;26.78;99340.00;5032591;28;872;-52
2023/05/16 13:05:34;;;;;;;;;;;;;;;29.21;27.19;99339.59;5032555;28;819;-50
2023/05/16 13:08:01;;;;;;;;;;;;;;;28.96;28.52;99336.13;5032375;28;911;-54
2023/05/16 13:10:28;;;;;;;;;;;;;;;29.49;27.30;99334.16;5032448;28;1319;-54
2023/05/16 13:12:58;;;;;;;;;;;;;;;30.22;26.42;99340.50;5032488;28;878;-53
2023/05/16 13:15:25;;;;;;;;;;;;;;;30.90;25.84;99341.88;5032340;28;970;-53
2023/05/16 13:17:51;;;;;;;;;;;;;;;31.11;25.37;99339.78;5032341;28;824;-52
2023/05/16 13:20:19;;;;;;;;;;;;;;;31.09;25.72;99336.72;5032106;28;1969;-54
2023/05/16 13:22:46;;;;;;;;;;;;;;;31.08;25.27;99342.97;5032238;28;934;-53
2023/05/16 13:25:13;;;;;;;;;;;;;;;30.90;25.63;99347.56;5032225;28;949;-55
2023/05/16 13:27:40;;;;;;;;;;;;;;;30.65;25.29;99347.84;5032113;28;915;-53
2023/05/16 13:30:07;;;;;;;;;;;;;;;30.10;24.98;99345.66;5032164;28;898;-53
2023/05/16 13:32:34;;;;;;;;;;;;;;;29.29;24.47;99338.38;5032187;28;804;-55
2023/05/16 13:35:02;;;;;;;;;;;;;;;28.97;25.38;99343.31;5031983;28;1024;-54
2023/05/16 13:37:30;;;;;;;;;;;;;;;28.95;25.48;99332.47;5031284;28;808;-53
2023/05/16 13:39:57;;;;;;;;;;;;;;;28.90;24.67;99331.28;5031870;28;1874;-54